createdAt,value
2022-08-28T00:01:59.900Z,18.37
2022-08-28T00:04:26.817Z,18.36
2022-08-28T00:06:53.281Z,18.33
2022-08-28T00:09:19.679Z,18.31
2022-08-28T00:11:46.977Z,18.28
2022-08-28T00:14:13.822Z,18.27
2022-08-28T00:16:40.314Z,18.28
2022-08-28T00:19:06.779Z,18.25
2022-08-28T00:21:33.379Z,18.23
2022-08-28T00:24:00.622Z,18.19
2022-08-28T00:26:45.885Z,18.19
2022-08-28T00:29:12.757Z,18.19
2022-08-28T00:31:39.605Z,18.16
2022-08-28T00:34:09.660Z,18.18
2022-08-28T00:36:37.636Z,18.20
2022-08-28T00:39:06.216Z,18.18
2022-08-28T00:41:34.684Z,18.22
2022-08-28T00:44:23.800Z,18.20
2022-08-28T00:46:52.365Z,18.19
2022-08-28T00:49:23.481Z,18.18
2022-08-28T00:52:12.487Z,18.16
2022-08-28T00:55:04.673Z,18.16
2022-08-28T00:57:35.912Z,18.17
2022-08-28T01:00:07.223Z,18.15
2022-08-28T01:02:33.751Z,18.13
2022-08-28T01:05:00.393Z,18.12
2022-08-28T01:07:26.853Z,18.13
2022-08-28T01:09:54.666Z,18.13
2022-08-28T01:12:26.242Z,18.12
2022-08-28T01:14:59.727Z,18.13
2022-08-28T01:17:28.958Z,18.11
2022-08-28T01:20:00.861Z,18.12
2022-08-28T01:22:39.965Z,18.11
2022-08-28T01:25:11.333Z,18.11
2022-08-28T01:27:38.622Z,18.08
2022-08-28T01:30:05.421Z,18.04
2022-08-28T01:32:38.869Z,18.02
2022-08-28T01:35:10.297Z,18.01
2022-08-28T01:37:37.557Z,18.03
2022-08-28T01:40:08.583Z,18.03
2022-08-28T01:42:39.365Z,18.02
2022-08-28T01:45:10.921Z,18.01
2022-08-28T01:47:38.975Z,17.98
2022-08-28T01:50:07.154Z,17.97
2022-08-28T01:52:33.957Z,17.99
2022-08-28T01:55:00.372Z,18.00
2022-08-28T01:57:26.793Z,17.98
2022-08-28T01:59:54.308Z,17.98
2022-08-28T02:02:20.782Z,17.98
2022-08-28T02:04:48.520Z,17.98
2022-08-28T02:07:16.785Z,17.97
2022-08-28T02:09:43.355Z,17.97
2022-08-28T02:12:10.278Z,17.95
2022-08-28T02:14:38.611Z,17.92
2022-08-28T02:17:04.988Z,17.90
2022-08-28T02:19:32.149Z,17.90
2022-08-28T02:21:58.642Z,17.91
2022-08-28T02:24:25.024Z,17.90
2022-08-28T02:26:51.424Z,17.88
2022-08-28T02:29:18.566Z,17.89
2022-08-28T02:31:44.963Z,17.89
2022-08-28T02:34:11.418Z,17.85
2022-08-28T02:36:41.776Z,17.85
2022-08-28T02:39:08.322Z,17.87
2022-08-28T02:41:34.818Z,17.86
2022-08-28T02:44:01.388Z,17.85
2022-08-28T02:46:27.974Z,17.85
2022-08-28T02:48:56.164Z,17.84
2022-08-28T02:51:23.058Z,17.83
2022-08-28T02:53:50.365Z,17.84
2022-08-28T02:56:16.960Z,17.84
2022-08-28T02:58:43.365Z,17.83
2022-08-28T03:01:12.509Z,17.84
2022-08-28T03:03:40.765Z,17.82
2022-08-28T03:06:09.505Z,17.82
2022-08-28T03:08:35.988Z,17.84
2022-08-28T03:11:02.401Z,17.86
2022-08-28T03:13:29.998Z,17.85
2022-08-28T03:15:57.524Z,17.83
2022-08-28T03:18:26.154Z,17.84
2022-08-28T03:20:53.362Z,17.85
2022-08-28T03:23:29.054Z,17.85
2022-08-28T03:26:01.433Z,17.86
2022-08-28T03:28:30.916Z,17.86
2022-08-28T03:30:57.999Z,17.86
2022-08-28T03:33:25.045Z,17.83
2022-08-28T03:35:51.517Z,17.84
2022-08-28T03:38:19.935Z,17.84
2022-08-28T03:40:47.442Z,17.84
2022-08-28T03:43:18.094Z,17.86
2022-08-28T03:45:58.041Z,17.87
2022-08-28T03:48:26.702Z,17.90
2022-08-28T03:50:53.898Z,17.89
2022-08-28T03:53:23.630Z,17.86
2022-08-28T03:55:50.329Z,17.86
2022-08-28T03:58:19.010Z,17.86
2022-08-28T04:00:46.586Z,17.86
2022-08-28T04:03:13.458Z,17.88
2022-08-28T04:05:44.366Z,17.90
2022-08-28T04:08:15.865Z,17.90
2022-08-28T04:10:43.948Z,17.91
2022-08-28T04:13:12.177Z,17.90
2022-08-28T04:15:39.546Z,17.87
2022-08-28T04:18:06.028Z,17.85
2022-08-28T04:20:32.438Z,17.87
2022-08-28T04:22:58.909Z,17.86
2022-08-28T04:25:26.876Z,17.85
2022-08-28T04:27:53.268Z,17.87
2022-08-28T04:30:19.870Z,17.83
2022-08-28T04:32:46.298Z,17.84
2022-08-28T04:35:13.567Z,17.83
2022-08-28T04:37:41.163Z,17.79
2022-08-28T04:40:10.798Z,17.82
2022-08-28T04:42:38.725Z,17.84
2022-08-28T04:45:06.473Z,17.85
2022-08-28T04:47:38.401Z,17.85
2022-08-28T04:50:06.950Z,17.93
2022-08-28T04:52:33.564Z,18.17
2022-08-28T04:55:00.183Z,18.16
2022-08-28T04:57:26.592Z,18.13
2022-08-28T04:59:53.089Z,18.04
2022-08-28T05:02:19.570Z,17.99
2022-08-28T05:04:46.809Z,17.92
2022-08-28T05:07:13.488Z,17.89
2022-08-28T05:09:39.873Z,17.86
2022-08-28T05:12:06.388Z,17.82
2022-08-28T05:14:32.829Z,17.78
2022-08-28T05:16:59.241Z,17.75
2022-08-28T05:19:27.699Z,17.72
2022-08-28T05:21:55.129Z,17.68
2022-08-28T05:24:22.341Z,17.69
2022-08-28T05:26:48.897Z,17.71
2022-08-28T05:29:16.687Z,17.75
2022-08-28T05:31:43.424Z,17.76
2022-08-28T05:34:10.698Z,17.76
2022-08-28T05:36:39.119Z,17.78
2022-08-28T05:39:09.145Z,17.79
2022-08-28T05:41:36.976Z,17.76
2022-08-28T05:44:06.997Z,17.75
2022-08-28T05:46:35.628Z,17.71
2022-08-28T05:49:03.949Z,17.70
2022-08-28T05:51:34.218Z,17.72
2022-08-28T05:54:01.946Z,17.74
2022-08-28T05:56:31.240Z,17.75
2022-08-28T05:58:59.943Z,17.78
2022-08-28T06:01:29.453Z,17.78
2022-08-28T06:03:58.153Z,17.76
2022-08-28T06:06:26.536Z,17.76
2022-08-28T06:08:59.129Z,17.77
2022-08-28T06:11:31.284Z,17.78
2022-08-28T06:14:01.725Z,17.82
2022-08-28T06:16:31.645Z,17.82
2022-08-28T06:18:59.150Z,17.85
2022-08-28T06:21:26.061Z,17.85
2022-08-28T06:23:52.569Z,17.89
2022-08-28T06:26:19.119Z,17.93
2022-08-28T06:28:45.807Z,17.93
2022-08-28T06:31:23.540Z,17.91
2022-08-28T06:33:53.810Z,17.91
2022-08-28T06:36:20.375Z,17.91
2022-08-28T06:38:46.928Z,17.91
2022-08-28T06:41:15.441Z,17.89
2022-08-28T06:43:42.372Z,17.87
2022-08-28T06:46:09.110Z,17.86
2022-08-28T06:48:35.638Z,17.89
2022-08-28T06:51:06.650Z,17.88
2022-08-28T06:53:33.668Z,17.82
2022-08-28T06:56:25.577Z,17.85
2022-08-28T06:58:55.114Z,17.87
2022-08-28T07:01:29.105Z,17.93
2022-08-28T07:04:01.530Z,17.97
2022-08-28T07:06:32.239Z,17.99
2022-08-28T07:08:58.679Z,18.01
2022-08-28T07:11:28.819Z,18.05
2022-08-28T07:13:56.617Z,18.08
2022-08-28T07:16:27.153Z,18.14
2022-08-28T07:18:54.164Z,18.19
2022-08-28T07:21:20.962Z,18.19
2022-08-28T07:23:47.479Z,18.24
2022-08-28T07:26:17.502Z,18.23
2022-08-28T07:28:44.010Z,18.24
2022-08-28T07:31:22.841Z,18.25
2022-08-28T07:33:53.525Z,18.25
2022-08-28T07:36:29.006Z,18.24
2022-08-28T07:38:58.294Z,18.23
2022-08-28T07:41:28.310Z,18.23
2022-08-28T07:44:13.394Z,18.26
2022-08-28T07:46:41.130Z,18.26
2022-08-28T07:49:08.693Z,18.25
2022-08-28T07:51:35.427Z,18.27
2022-08-28T07:54:03.811Z,18.26
2022-08-28T07:56:30.958Z,18.25
2022-08-28T07:58:58.596Z,18.23
2022-08-28T08:01:26.803Z,18.20
2022-08-28T08:03:55.931Z,18.22
2022-08-28T08:06:34.471Z,18.23
2022-08-28T08:09:02.275Z,18.22
2022-08-28T08:11:32.632Z,18.23
2022-08-28T08:14:05.483Z,18.27
2022-08-28T08:16:38.987Z,18.30
2022-08-28T08:19:09.699Z,18.32
2022-08-28T08:21:36.877Z,18.35
2022-08-28T08:24:03.594Z,18.37
2022-08-28T08:26:30.087Z,18.45
2022-08-28T08:28:56.716Z,18.53
2022-08-28T08:31:29.505Z,18.63
2022-08-28T08:33:58.450Z,18.52
2022-08-28T08:36:26.545Z,18.57
2022-08-28T08:38:59.431Z,18.62
2022-08-28T08:41:48.053Z,18.71
2022-08-28T08:44:21.610Z,18.73
2022-08-28T08:47:15.474Z,18.73
2022-08-28T08:49:50.066Z,18.80
2022-08-28T08:52:43.901Z,18.81
2022-08-28T08:55:19.606Z,18.85
2022-08-28T08:57:51.225Z,18.89
2022-08-28T09:00:19.323Z,18.95
2022-08-28T09:03:02.918Z,18.98
2022-08-28T09:05:50.005Z,19.01
2022-08-28T09:08:28.708Z,19.02
2022-08-28T09:11:02.661Z,19.03
2022-08-28T09:13:49.245Z,19.13
2022-08-28T09:16:48.362Z,19.17
2022-08-28T09:19:20.936Z,19.14
2022-08-28T09:21:49.658Z,19.10
2022-08-28T09:24:32.190Z,19.15
2022-08-28T09:27:23.009Z,19.18
2022-08-28T09:30:07.539Z,19.23
2022-08-28T09:32:41.541Z,19.33
2022-08-28T09:35:28.438Z,19.36
2022-08-28T09:37:56.517Z,19.44
2022-08-28T09:40:22.922Z,19.46
2022-08-28T09:43:22.809Z,19.42
2022-08-28T09:46:16.711Z,19.53
2022-08-28T09:48:45.558Z,19.66
2022-08-28T09:51:20.945Z,19.78
2022-08-28T09:53:50.350Z,19.88
2022-08-28T09:56:27.365Z,19.83
2022-08-28T09:58:59.416Z,19.84
2022-08-28T10:01:40.830Z,19.83
2022-08-28T10:05:00.611Z,19.76
2022-08-28T10:07:46.317Z,19.64
2022-08-28T10:10:29.748Z,19.62
2022-08-28T10:13:14.700Z,19.66
2022-08-28T10:15:43.370Z,19.69
2022-08-28T10:18:49.147Z,19.64
2022-08-28T10:21:29.417Z,19.55
2022-08-28T10:24:26.347Z,19.60
2022-08-28T10:27:44.856Z,19.58
2022-08-28T10:31:32.067Z,19.66
2022-08-28T10:34:30.083Z,19.82
2022-08-28T10:37:24.633Z,19.80
2022-08-28T10:39:57.615Z,19.76
2022-08-28T10:42:36.717Z,19.82
2022-08-28T10:45:06.962Z,19.78
2022-08-28T10:47:39.067Z,19.73
2022-08-28T10:50:17.359Z,19.74
2022-08-28T10:53:00.164Z,19.90
2022-08-28T10:55:55.070Z,19.99
2022-08-28T10:58:25.576Z,20.02
2022-08-28T11:01:38.762Z,20.02
2022-08-28T11:04:24.922Z,19.95
2022-08-28T11:07:00.210Z,20.00
2022-08-28T11:09:33.719Z,20.16
2022-08-28T11:12:27.913Z,20.17
2022-08-28T11:14:54.447Z,20.06
2022-08-28T11:17:30.350Z,19.99
2022-08-28T11:20:15.352Z,19.92
2022-08-28T11:22:49.433Z,19.95
2022-08-28T11:25:27.643Z,20.12
2022-08-28T11:28:19.721Z,20.24
2022-08-28T11:30:49.439Z,20.18
2022-08-28T11:33:43.595Z,20.15
2022-08-28T11:36:17.957Z,20.08
2022-08-28T11:38:44.265Z,19.98
2022-08-28T11:41:21.734Z,20.00
2022-08-28T11:43:52.300Z,20.01
2022-08-28T11:46:32.803Z,20.12
2022-08-28T11:49:02.389Z,20.13
2022-08-28T11:52:01.398Z,20.20
2022-08-28T11:54:51.135Z,20.35
2022-08-28T11:57:45.549Z,20.36
2022-08-28T12:00:34.222Z,20.37
2022-08-28T12:03:06.764Z,20.31
2022-08-28T12:05:33.306Z,20.27
2022-08-28T12:08:02.341Z,20.19
2022-08-28T12:10:30.453Z,20.20
2022-08-28T12:12:56.778Z,20.34
2022-08-28T12:15:29.491Z,20.43
2022-08-28T12:18:01.482Z,20.53
2022-08-28T12:20:30.367Z,20.62
2022-08-28T12:23:03.382Z,20.72
2022-08-28T12:25:35.668Z,20.77
2022-08-28T12:28:22.714Z,20.72
2022-08-28T12:31:14.094Z,20.64
2022-08-28T12:33:57.680Z,20.68
2022-08-28T12:36:28.626Z,20.79
2022-08-28T12:39:00.370Z,20.76
2022-08-28T12:41:27.322Z,20.74
2022-08-28T12:43:58.165Z,20.82
2022-08-28T12:46:27.307Z,20.86
2022-08-28T12:48:59.605Z,20.92
2022-08-28T12:51:31.840Z,20.96
2022-08-28T12:54:05.053Z,20.87
2022-08-28T12:56:35.110Z,20.80
2022-08-28T12:59:34.721Z,20.85
2022-08-28T13:02:09.675Z,20.84
2022-08-28T13:04:40.346Z,20.87
2022-08-28T13:07:17.337Z,20.88
2022-08-28T13:09:50.982Z,20.99
2022-08-28T13:12:54.900Z,21.10
2022-08-28T13:15:44.613Z,21.17
2022-08-28T13:18:33.925Z,21.26
2022-08-28T13:21:33.993Z,21.13
2022-08-28T13:24:26.080Z,20.93
2022-08-28T13:27:06.691Z,20.87
2022-08-28T13:29:34.570Z,20.97
2022-08-28T13:32:04.357Z,21.07
2022-08-28T13:34:33.698Z,21.10
2022-08-28T13:37:07.296Z,21.14
2022-08-28T13:39:43.898Z,21.23
2022-08-28T13:42:13.566Z,21.17
2022-08-28T13:44:53.132Z,21.11
2022-08-28T13:47:19.836Z,21.15
2022-08-28T13:49:46.721Z,21.12
2022-08-28T13:52:13.712Z,21.11
2022-08-28T13:54:43.494Z,21.14
2022-08-28T13:57:13.339Z,21.20
2022-08-28T13:59:40.065Z,21.22
2022-08-28T14:02:29.398Z,21.13
2022-08-28T14:04:55.872Z,21.10
2022-08-28T14:07:22.401Z,21.07
2022-08-28T14:09:51.797Z,21.09
2022-08-28T14:12:20.585Z,21.10
2022-08-28T14:14:48.700Z,21.05
2022-08-28T14:17:15.229Z,21.04
2022-08-28T14:19:41.670Z,21.06
2022-08-28T14:22:08.838Z,21.10
2022-08-28T14:24:35.253Z,21.05
2022-08-28T14:27:02.545Z,21.00
2022-08-28T14:29:29.010Z,21.02
2022-08-28T14:31:55.460Z,21.05
2022-08-28T14:34:24.049Z,20.98
2022-08-28T14:36:54.927Z,21.03
2022-08-28T14:39:24.921Z,20.99
2022-08-28T14:41:53.233Z,20.92
2022-08-28T14:44:21.774Z,20.90
2022-08-28T14:46:49.415Z,20.89
2022-08-28T14:49:17.674Z,20.96
2022-08-28T14:51:45.332Z,20.95
2022-08-28T14:54:14.068Z,20.92
2022-08-28T14:56:43.089Z,20.92
2022-08-28T14:59:16.741Z,20.92
2022-08-28T15:01:46.365Z,20.90
2022-08-28T15:04:16.603Z,20.89
2022-08-28T15:06:44.238Z,20.82
2022-08-28T15:09:12.931Z,20.84
2022-08-28T15:11:39.684Z,20.89
2022-08-28T15:14:06.719Z,20.89
2022-08-28T15:16:36.510Z,20.86
2022-08-28T15:19:03.010Z,20.81
2022-08-28T15:21:38.272Z,20.81
2022-08-28T15:24:06.356Z,20.69
2022-08-28T15:26:33.297Z,20.66
2022-08-28T15:29:03.698Z,20.74
2022-08-28T15:31:33.115Z,20.76
2022-08-28T15:34:04.441Z,20.78
2022-08-28T15:36:34.277Z,20.86
2022-08-28T15:39:20.213Z,20.92
2022-08-28T15:41:47.131Z,20.91
2022-08-28T15:44:15.124Z,20.88
2022-08-28T15:46:48.309Z,20.86
2022-08-28T15:49:17.208Z,20.83
2022-08-28T15:51:43.628Z,20.74
2022-08-28T15:54:11.174Z,20.63
2022-08-28T15:56:37.593Z,20.59
2022-08-28T15:59:04.098Z,20.57
2022-08-28T16:01:30.614Z,20.55
2022-08-28T16:03:57.046Z,20.61
2022-08-28T16:06:23.799Z,20.62
2022-08-28T16:08:50.511Z,20.63
2022-08-28T16:11:19.307Z,20.67
2022-08-28T16:13:46.394Z,20.67
2022-08-28T16:16:13.023Z,20.67
2022-08-28T16:18:39.827Z,20.63
2022-08-28T16:21:06.484Z,20.53
2022-08-28T16:23:33.571Z,20.52
2022-08-28T16:26:01.349Z,20.44
2022-08-28T16:28:27.942Z,20.40
2022-08-28T16:30:54.658Z,20.37
2022-08-28T16:33:22.197Z,20.33
2022-08-28T16:35:50.724Z,20.37
2022-08-28T16:38:22.166Z,20.44
2022-08-28T16:40:48.651Z,20.46
2022-08-28T16:43:15.282Z,20.49
2022-08-28T16:45:44.002Z,20.48
2022-08-28T16:48:12.684Z,20.43
2022-08-28T16:50:43.689Z,20.35
2022-08-28T16:53:11.917Z,20.37
2022-08-28T16:55:40.322Z,20.40
2022-08-28T16:58:07.135Z,20.41
2022-08-28T17:00:33.774Z,20.38
2022-08-28T17:03:00.468Z,20.40
2022-08-28T17:05:27.181Z,20.41
2022-08-28T17:07:53.618Z,20.43
2022-08-28T17:10:23.437Z,20.36
2022-08-28T17:12:50.027Z,20.33
2022-08-28T17:15:17.878Z,20.30
2022-08-28T17:17:44.790Z,20.29
2022-08-28T17:20:30.829Z,20.31
2022-08-28T17:22:57.329Z,20.33
2022-08-28T17:25:25.189Z,20.30
2022-08-28T17:27:52.386Z,20.29
2022-08-28T17:30:19.300Z,20.30
2022-08-28T17:32:46.122Z,20.29
2022-08-28T17:35:13.001Z,20.28
2022-08-28T17:37:40.611Z,20.27
2022-08-28T17:40:10.280Z,20.28
2022-08-28T17:42:36.744Z,20.30
2022-08-28T17:45:04.527Z,20.30
2022-08-28T17:47:31.737Z,20.29
2022-08-28T17:50:01.542Z,20.30
2022-08-28T17:52:29.387Z,20.30
2022-08-28T17:54:56.082Z,20.30
2022-08-28T17:57:24.096Z,20.28
2022-08-28T17:59:50.525Z,20.22
2022-08-28T18:02:17.666Z,20.16
2022-08-28T18:04:44.218Z,20.13
2022-08-28T18:07:11.200Z,20.08
2022-08-28T18:09:37.674Z,20.07
2022-08-28T18:12:06.256Z,20.12
2022-08-28T18:14:38.752Z,20.13
2022-08-28T18:17:05.338Z,20.15
2022-08-28T18:19:35.761Z,20.14
2022-08-28T18:22:02.454Z,20.15
2022-08-28T18:24:29.057Z,20.15
2022-08-28T18:26:58.869Z,20.15
2022-08-28T18:29:25.617Z,20.14
2022-08-28T18:31:52.282Z,20.16
2022-08-28T18:34:18.834Z,20.17
2022-08-28T18:36:45.445Z,20.18
2022-08-28T18:39:12.136Z,20.14
2022-08-28T18:41:43.898Z,20.10
2022-08-28T18:44:12.200Z,20.06
2022-08-28T18:46:38.852Z,20.04
2022-08-28T18:49:05.715Z,19.99
2022-08-28T18:51:32.881Z,20.00
2022-08-28T18:54:03.459Z,20.00
2022-08-28T18:56:32.315Z,19.93
2022-08-28T18:59:00.291Z,19.89
2022-08-28T19:01:26.887Z,19.84
2022-08-28T19:03:54.858Z,19.84
2022-08-28T19:06:21.765Z,19.84
2022-08-28T19:08:48.234Z,19.86
2022-08-28T19:11:14.724Z,19.81
2022-08-28T19:13:41.669Z,19.76
2022-08-28T19:16:08.927Z,19.71
2022-08-28T19:18:35.540Z,19.65
2022-08-28T19:21:09.011Z,19.64
2022-08-28T19:23:35.989Z,19.63
2022-08-28T19:26:02.820Z,19.59
2022-08-28T19:28:29.238Z,19.57
2022-08-28T19:30:55.785Z,19.61
2022-08-28T19:33:22.335Z,19.62
2022-08-28T19:35:48.846Z,19.64
2022-08-28T19:38:15.537Z,19.63
2022-08-28T19:40:42.280Z,19.63
2022-08-28T19:43:11.452Z,19.59
2022-08-28T19:45:44.911Z,19.50
2022-08-28T19:48:11.999Z,19.48
2022-08-28T19:50:39.265Z,19.49
2022-08-28T19:53:05.788Z,19.46
2022-08-28T19:55:32.597Z,19.40
2022-08-28T19:57:59.562Z,19.41
2022-08-28T20:00:31.911Z,19.37
2022-08-28T20:02:58.892Z,19.38
2022-08-28T20:05:25.336Z,19.38
2022-08-28T20:07:51.812Z,19.34
2022-08-28T20:10:18.990Z,19.28
2022-08-28T20:12:48.246Z,19.30
2022-08-28T20:15:16.739Z,19.23
2022-08-28T20:17:43.856Z,19.23
2022-08-28T20:20:11.458Z,19.18
2022-08-28T20:22:39.185Z,19.20
2022-08-28T20:25:06.837Z,19.21
2022-08-28T20:27:33.365Z,19.13
2022-08-28T20:30:10.296Z,19.08
2022-08-28T20:32:41.440Z,18.99
2022-08-28T20:35:10.506Z,18.96
2022-08-28T20:37:45.139Z,18.93
2022-08-28T20:40:18.483Z,18.93
2022-08-28T20:42:46.189Z,18.91
2022-08-28T20:45:15.261Z,18.93
2022-08-28T20:47:41.889Z,18.91
2022-08-28T20:50:08.705Z,18.85
2022-08-28T20:52:35.134Z,18.85
2022-08-28T20:55:02.078Z,18.84
2022-08-28T20:57:28.480Z,18.80
2022-08-28T20:59:54.858Z,18.76
2022-08-28T21:02:23.869Z,18.75
2022-08-28T21:04:51.748Z,18.75
2022-08-28T21:07:20.452Z,18.77
2022-08-28T21:10:05.397Z,18.76
2022-08-28T21:12:37.721Z,18.81
2022-08-28T21:15:07.392Z,18.79
2022-08-28T21:17:33.960Z,18.77
2022-08-28T21:20:04.428Z,18.76
2022-08-28T21:22:33.004Z,18.76
2022-08-28T21:25:02.218Z,18.75
2022-08-28T21:27:29.577Z,18.72
2022-08-28T21:29:57.461Z,18.70
2022-08-28T21:32:24.613Z,18.67
2022-08-28T21:34:51.221Z,18.68
2022-08-28T21:37:17.624Z,18.71
2022-08-28T21:39:44.078Z,18.70
2022-08-28T21:42:10.729Z,18.69
2022-08-28T21:44:37.816Z,18.73
2022-08-28T21:47:04.670Z,18.71
2022-08-28T21:49:31.186Z,18.71
2022-08-28T21:52:01.014Z,18.71
2022-08-28T21:54:28.040Z,18.73
2022-08-28T21:56:58.699Z,18.74
2022-08-28T21:59:25.900Z,18.74
2022-08-28T22:01:57.214Z,18.73
2022-08-28T22:04:24.350Z,18.75
2022-08-28T22:06:50.783Z,18.73
2022-08-28T22:09:17.190Z,18.64
2022-08-28T22:11:43.970Z,18.62
2022-08-28T22:14:10.988Z,18.61
2022-08-28T22:16:37.587Z,18.62
2022-08-28T22:19:04.213Z,18.63
2022-08-28T22:21:49.223Z,18.63
2022-08-28T22:24:15.894Z,18.63
2022-08-28T22:26:43.255Z,18.59
2022-08-28T22:29:11.157Z,18.59
2022-08-28T22:31:38.603Z,18.60
2022-08-28T22:34:12.692Z,18.58
2022-08-28T22:36:39.782Z,18.58
2022-08-28T22:39:06.237Z,18.58
2022-08-28T22:41:33.140Z,18.57
2022-08-28T22:44:00.219Z,18.54
2022-08-28T22:46:27.772Z,18.50
2022-08-28T22:48:54.255Z,18.47
2022-08-28T22:51:20.664Z,18.44
2022-08-28T22:53:47.630Z,18.41
2022-08-28T22:56:15.861Z,18.38
2022-08-28T22:58:42.424Z,18.35
2022-08-28T23:01:17.430Z,18.33
2022-08-28T23:03:44.944Z,18.31
2022-08-28T23:06:11.919Z,18.29
2022-08-28T23:08:38.381Z,18.27
2022-08-28T23:11:05.017Z,18.26
2022-08-28T23:13:32.790Z,18.23
2022-08-28T23:15:59.426Z,18.22
2022-08-28T23:18:25.890Z,18.21
2022-08-28T23:20:55.147Z,18.19
2022-08-28T23:23:22.898Z,18.18
2022-08-28T23:25:50.420Z,18.13
2022-08-28T23:28:17.712Z,18.13
2022-08-28T23:30:48.580Z,18.10
2022-08-28T23:33:23.561Z,18.09
2022-08-28T23:35:51.252Z,18.10
2022-08-28T23:38:18.032Z,18.08
2022-08-28T23:40:44.545Z,18.10
2022-08-28T23:43:11.914Z,18.09
2022-08-28T23:45:39.640Z,18.09
2022-08-28T23:48:06.273Z,18.06
2022-08-28T23:50:32.914Z,18.08
2022-08-28T23:52:59.583Z,18.09
2022-08-28T23:55:27.108Z,18.06
2022-08-28T23:57:54.255Z,18.05
